PLYK1: Cottonwood River, Plymouth, KS

                                SHEF ID:       PLYK1     COTTONWOOD R NR PLYMOUTH, KS
STATION TYPE:
Regulating: Stage = 28.00, Flow = 11886

PRECIP STAGE STAGE(2) RIV-FLOW BAT-LOAD
in ft ft cfs volt
Ccp-Rev Ccp-Rev Ccp-Rev Ccp-Rev Ccp-Rev
(America/Chicago)
11/28 00:00 0.00 6.55 ---- 934 12.50
11/28 01:00 0.00 6.54 ---- 931 12.48
11/28 02:00 0.00 6.53 ---- 928 12.46
11/28 03:00 0.00 6.51 ---- 922 12.44
11/28 04:00 0.00 6.50 ---- 920 12.43
11/28 05:00 0.00 6.49 ---- 917 12.42
11/28 06:00 0.00 6.48 ---- 914 12.40
11/28 07:00 0.00 6.47 ---- 911 12.40
11/28 08:00 0.00 6.46 ---- 909 12.38
11/28 09:00 0.00 6.45 ---- 906 12.40
11/28 10:00 0.00 6.44 ---- 903 12.55
11/28 11:00 0.00 6.41 ---- 895 13.51
11/28 12:00 0.00 6.41 ---- 895 12.82
11/28 13:00 0.00 6.42 ---- 898 12.92
11/28 14:00 0.00 6.40 ---- 892 12.85
11/28 15:00 0.00 6.39 ---- 889 12.79
11/28 16:00 0.00 6.39 ---- 889 12.84
11/28 17:00 0.00 6.38 ---- 887 12.62
11/28 18:00 0.00 6.37 ---- 884 12.53
11/28 19:00 0.00 6.36 ---- 881 12.48
11/28 20:00 0.00 6.35 ---- 878 12.46
11/28 21:00 0.00 6.35 ---- 878 12.45
11/28 22:00 0.00 6.34 ---- 876 12.44
11/28 23:00 0.00 6.33 ---- 873 12.44
Data processed at Sat 29Nov2025 05:06 GMT

NOTICE: If you are parsing this page

Please convert to using our Data API. Starting January 1st, 2026 we will be migrating to: https://water.usace.army.mil with modern pages rendered in JavaScript. You will no longer be able to scrape this page! CWMSDataAPI (CDA)

Timeseries IDs (TSIDs)

TSIDs used from left to right in the data table
PLYM.Precip-Inc.Total.1Hour.1Hour.Ccp-Rev
PLYM.Stage.Inst.1Hour.0.Ccp-Rev
PLYM.Stage-Alt.Inst.1Hour.0.Ccp-Rev
PLYM.Flow.Inst.1Hour.0.Ccp-Rev
PLYM.Volt-Battery Load.Inst.1Hour.0.Ccp-Rev

                            

All information presented herein is the property of the government of the United States of America and may be revised or deleted at any time without prior notice. Dissemination of this information without the expressed written consent of the Public Affairs Office, Tulsa District U.S. Army Corps of Engineers is strictly prohibited. These data are gathered electronically and, as presented, have NOT undergone any form of quality control. These data are NOT guaranteed to be valid or correct.